createdAt,value
2022-07-28T00:02:23.521Z,99.90
2022-07-28T00:04:50.581Z,99.90
2022-07-28T00:07:17.449Z,99.90
2022-07-28T00:09:44.314Z,99.90
2022-07-28T00:12:11.177Z,99.90
2022-07-28T00:14:38.164Z,99.90
2022-07-28T00:17:04.973Z,99.90
2022-07-28T00:19:31.993Z,99.90
2022-07-28T00:21:59.002Z,99.90
2022-07-28T00:24:25.922Z,99.90
2022-07-28T00:26:52.705Z,99.90
2022-07-28T00:29:19.599Z,99.90
2022-07-28T00:31:46.409Z,99.90
2022-07-28T00:34:13.708Z,99.90
2022-07-28T00:36:40.755Z,99.90
2022-07-28T00:39:08.218Z,99.90
2022-07-28T00:41:36.430Z,99.90
2022-07-28T00:44:07.555Z,99.90
2022-07-28T00:46:35.010Z,99.90
2022-07-28T00:49:02.728Z,99.90
2022-07-28T00:51:29.968Z,99.90
2022-07-28T00:53:57.746Z,99.90
2022-07-28T00:56:25.194Z,99.90
2022-07-28T00:58:52.415Z,99.90
2022-07-28T01:01:21.183Z,99.90
2022-07-28T01:03:54.952Z,99.90
2022-07-28T01:06:31.351Z,99.90
2022-07-28T01:09:56.747Z,99.90
2022-07-28T01:13:02.536Z,99.90
2022-07-28T01:15:55.474Z,99.90
2022-07-28T01:18:29.213Z,99.90
2022-07-28T01:21:12.099Z,99.90
2022-07-28T01:24:00.614Z,99.90
2022-07-28T01:26:43.328Z,99.90
2022-07-28T01:30:08.134Z,99.90
2022-07-28T01:32:47.988Z,99.90
2022-07-28T01:35:21.633Z,99.90
2022-07-28T01:37:55.241Z,99.90
2022-07-28T01:40:29.375Z,99.90
2022-07-28T01:43:02.365Z,99.90
2022-07-28T01:45:32.355Z,99.90
2022-07-28T01:48:03.161Z,99.90
2022-07-28T01:50:33.631Z,99.90
2022-07-28T01:53:02.831Z,99.90
2022-07-28T01:55:31.545Z,99.90
2022-07-28T01:57:59.745Z,99.90
2022-07-28T02:00:28.621Z,99.90
2022-07-28T02:02:57.742Z,99.90
2022-07-28T02:05:26.461Z,99.90
2022-07-28T02:07:55.849Z,99.90
2022-07-28T02:10:24.786Z,99.90
2022-07-28T02:12:54.775Z,99.90
2022-07-28T02:15:23.953Z,99.90
2022-07-28T02:17:53.435Z,99.90
2022-07-28T02:20:22.102Z,99.90
2022-07-28T02:22:53.493Z,99.90
2022-07-28T02:25:21.716Z,99.90
2022-07-28T02:27:56.867Z,99.90
2022-07-28T02:30:37.396Z,99.90
2022-07-28T02:33:23.297Z,99.90
2022-07-28T02:36:24.937Z,99.90
2022-07-28T02:38:58.757Z,99.90
2022-07-28T02:41:29.650Z,99.90
2022-07-28T02:44:12.039Z,99.90
2022-07-28T02:46:46.596Z,99.90
2022-07-28T02:49:19.994Z,99.90
2022-07-28T02:51:51.311Z,99.90
2022-07-28T02:54:20.043Z,99.90
2022-07-28T02:56:53.123Z,99.90
2022-07-28T02:59:23.252Z,99.90
2022-07-28T03:01:51.195Z,99.90
2022-07-28T03:04:39.175Z,99.90
2022-07-28T03:07:06.821Z,99.90
2022-07-28T03:09:46.333Z,99.90
2022-07-28T03:12:14.151Z,99.90
2022-07-28T03:14:41.950Z,99.90
2022-07-28T03:17:09.788Z,99.90
2022-07-28T03:19:37.230Z,99.90
2022-07-28T03:22:05.371Z,99.90
2022-07-28T03:24:40.103Z,99.90
2022-07-28T03:27:27.476Z,99.90
2022-07-28T03:30:07.245Z,99.90
2022-07-28T03:32:45.636Z,99.90
2022-07-28T03:35:14.117Z,99.90
2022-07-28T03:37:57.083Z,99.90
2022-07-28T03:40:31.685Z,99.90
2022-07-28T03:43:03.527Z,99.90
2022-07-28T03:45:32.784Z,99.90
2022-07-28T03:47:59.965Z,99.90
2022-07-28T03:50:29.776Z,99.90
2022-07-28T03:52:58.564Z,99.90
2022-07-28T03:55:26.672Z,99.90
2022-07-28T03:57:53.469Z,99.90
2022-07-28T04:00:22.449Z,99.90
2022-07-28T04:02:49.526Z,99.90
2022-07-28T04:05:19.009Z,99.90
2022-07-28T04:07:46.169Z,99.90
2022-07-28T04:10:16.496Z,99.90
2022-07-28T04:12:58.278Z,99.90
2022-07-28T04:15:28.227Z,99.90
2022-07-28T04:17:56.404Z,99.90
2022-07-28T04:20:25.437Z,99.90
2022-07-28T04:22:53.972Z,99.90
2022-07-28T04:25:24.033Z,99.90
2022-07-28T04:27:51.851Z,99.90
2022-07-28T04:30:24.601Z,99.90
2022-07-28T04:32:54.001Z,99.90
2022-07-28T04:35:24.149Z,99.90
2022-07-28T04:37:51.296Z,99.90
2022-07-28T04:40:18.246Z,99.90
2022-07-28T04:42:45.100Z,99.90
2022-07-28T04:45:12.067Z,99.90
2022-07-28T04:47:40.044Z,99.90
2022-07-28T04:50:09.599Z,99.90
2022-07-28T04:52:38.177Z,99.90
2022-07-28T04:55:06.725Z,99.90
2022-07-28T04:57:33.840Z,99.90
2022-07-28T05:00:00.971Z,99.90
2022-07-28T05:02:28.225Z,99.90
2022-07-28T05:04:55.179Z,99.90
2022-07-28T05:07:22.105Z,99.90
2022-07-28T05:09:48.904Z,99.90
2022-07-28T05:12:15.679Z,99.90
2022-07-28T05:14:42.535Z,99.90
2022-07-28T05:17:09.361Z,99.90
2022-07-28T05:19:36.829Z,99.90
2022-07-28T05:22:03.751Z,99.90
2022-07-28T05:24:30.583Z,99.90
2022-07-28T05:26:57.640Z,99.90
2022-07-28T05:29:24.672Z,99.90
2022-07-28T05:31:51.623Z,99.90
2022-07-28T05:34:18.613Z,99.90
2022-07-28T05:36:45.583Z,99.90
2022-07-28T05:39:12.836Z,99.90
2022-07-28T05:41:39.608Z,99.90
2022-07-28T05:44:06.426Z,99.90
2022-07-28T05:46:33.330Z,99.90
2022-07-28T05:49:00.235Z,99.90
2022-07-28T05:51:27.283Z,99.90
2022-07-28T05:53:54.193Z,99.90
2022-07-28T05:56:22.925Z,99.90
2022-07-28T05:58:49.840Z,99.90
2022-07-28T06:01:16.705Z,99.90
2022-07-28T06:03:43.505Z,99.90
2022-07-28T06:06:15.552Z,99.90
2022-07-28T06:08:44.352Z,99.90
2022-07-28T06:11:11.736Z,99.90
2022-07-28T06:13:39.972Z,99.90
2022-07-28T06:16:12.950Z,99.90
2022-07-28T06:18:40.372Z,99.90
2022-07-28T06:21:07.170Z,99.90
2022-07-28T06:23:34.190Z,99.90
2022-07-28T06:26:01.224Z,99.90
2022-07-28T06:28:28.004Z,99.90
2022-07-28T06:30:54.900Z,99.90
2022-07-28T06:33:21.750Z,99.90
2022-07-28T06:35:51.462Z,99.90
2022-07-28T06:38:20.532Z,99.90
2022-07-28T06:40:48.656Z,99.90
2022-07-28T06:43:15.619Z,99.90
2022-07-28T06:45:44.932Z,99.90
2022-07-28T06:48:13.597Z,99.90
2022-07-28T06:50:42.207Z,99.90
2022-07-28T06:53:09.354Z,99.90
2022-07-28T06:55:37.722Z,99.90
2022-07-28T06:58:05.212Z,99.90
2022-07-28T07:00:32.918Z,99.90
2022-07-28T07:03:00.942Z,99.90
2022-07-28T07:05:31.917Z,99.90
2022-07-28T07:07:59.393Z,99.90
2022-07-28T07:10:26.738Z,99.90
2022-07-28T07:12:53.574Z,99.90
2022-07-28T07:15:20.334Z,99.90
2022-07-28T07:17:47.192Z,99.90
2022-07-28T07:20:14.284Z,99.90
2022-07-28T07:22:46.281Z,99.90
2022-07-28T07:25:19.790Z,99.90
2022-07-28T07:27:47.306Z,99.90
2022-07-28T07:30:16.602Z,99.90
2022-07-28T07:32:44.275Z,99.90
2022-07-28T07:35:12.370Z,99.90
2022-07-28T07:37:39.629Z,99.90
2022-07-28T07:40:08.299Z,99.90
2022-07-28T07:42:35.650Z,99.90
2022-07-28T07:45:02.980Z,99.90
2022-07-28T07:47:29.880Z,99.90
2022-07-28T07:49:56.811Z,99.90
2022-07-28T07:52:23.664Z,99.90
2022-07-28T07:54:50.448Z,99.90
2022-07-28T07:57:17.295Z,99.90
2022-07-28T07:59:44.114Z,99.90
2022-07-28T08:02:10.979Z,99.90
2022-07-28T08:04:39.043Z,99.90
2022-07-28T08:07:06.895Z,99.90
2022-07-28T08:09:35.237Z,99.90
2022-07-28T08:12:02.593Z,99.90
2022-07-28T08:14:29.739Z,99.90
2022-07-28T08:16:58.432Z,99.90
2022-07-28T08:19:25.948Z,99.90
2022-07-28T08:21:53.706Z,99.90
2022-07-28T08:24:30.263Z,99.90
2022-07-28T08:27:00.473Z,99.90
2022-07-28T08:29:27.421Z,99.90
2022-07-28T08:31:54.313Z,99.90
2022-07-28T08:34:31.477Z,99.90
2022-07-28T08:37:05.472Z,99.90
2022-07-28T08:39:34.648Z,99.90
2022-07-28T08:42:18.016Z,99.90
2022-07-28T08:45:01.855Z,99.90
2022-07-28T08:47:40.660Z,99.90
2022-07-28T08:50:13.954Z,99.90
2022-07-28T08:52:45.311Z,99.90
2022-07-28T08:55:19.384Z,99.90
2022-07-28T08:57:47.496Z,99.90
2022-07-28T09:00:14.974Z,99.90
2022-07-28T09:02:47.329Z,99.90
2022-07-28T09:05:23.734Z,99.90
2022-07-28T09:07:55.211Z,99.90
2022-07-28T09:10:23.747Z,99.90
2022-07-28T09:12:51.614Z,99.90
2022-07-28T09:15:18.490Z,99.90
2022-07-28T09:17:45.345Z,99.90
2022-07-28T09:20:12.664Z,99.90
2022-07-28T09:23:01.219Z,99.90
2022-07-28T09:25:29.147Z,99.90
2022-07-28T09:27:56.643Z,99.50
2022-07-28T09:30:37.795Z,99.20
2022-07-28T09:33:42.902Z,98.60
2022-07-28T09:36:13.884Z,98.80
2022-07-28T09:38:41.651Z,97.20
2022-07-28T09:41:08.796Z,97.70
2022-07-28T09:43:45.024Z,98.60
2022-07-28T09:46:17.202Z,97.60
2022-07-28T09:48:50.664Z,97.20
2022-07-28T09:51:30.965Z,98.50
2022-07-28T09:54:15.227Z,97.70
2022-07-28T09:56:45.029Z,98.40
2022-07-28T09:59:14.586Z,97.60
2022-07-28T10:02:02.386Z,97.10
2022-07-28T10:04:36.054Z,97.50
2022-07-28T10:07:13.838Z,97.70
2022-07-28T10:09:41.824Z,97.80
2022-07-28T10:12:36.347Z,97.70
2022-07-28T10:15:35.629Z,96.80
2022-07-28T10:18:04.505Z,97.50
2022-07-28T10:20:33.815Z,98.30
2022-07-28T10:23:06.442Z,96.60
2022-07-28T10:25:35.411Z,97.20
2022-07-28T10:28:04.171Z,96.80
2022-07-28T10:30:37.756Z,96.90
2022-07-28T10:33:13.486Z,96.80
2022-07-28T10:35:51.001Z,96.00
2022-07-28T10:38:28.047Z,95.60
2022-07-28T10:40:58.740Z,96.60
2022-07-28T10:43:27.886Z,96.30
2022-07-28T10:46:05.685Z,96.60
2022-07-28T10:48:40.034Z,95.30
2022-07-28T10:51:11.801Z,96.60
2022-07-28T10:54:05.753Z,96.30
2022-07-28T10:56:59.009Z,95.20
2022-07-28T10:59:58.742Z,95.00
2022-07-28T11:02:58.771Z,95.60
2022-07-28T11:05:34.438Z,95.10
2022-07-28T11:08:29.174Z,94.70
2022-07-28T11:11:06.802Z,94.90
2022-07-28T11:13:37.145Z,96.10
2022-07-28T11:16:14.611Z,94.60
2022-07-28T11:19:40.472Z,95.80
2022-07-28T11:22:18.380Z,94.80
2022-07-28T11:24:57.908Z,94.70
2022-07-28T11:28:00.999Z,96.00
2022-07-28T11:30:35.750Z,95.50
2022-07-28T11:33:05.937Z,94.30
2022-07-28T11:35:56.591Z,94.80
2022-07-28T11:38:23.893Z,95.10
2022-07-28T11:40:54.349Z,95.10
2022-07-28T11:43:22.609Z,96.70
2022-07-28T11:46:10.422Z,96.10
2022-07-28T11:48:41.452Z,96.00
2022-07-28T11:51:09.234Z,95.10
2022-07-28T11:53:43.167Z,95.80
2022-07-28T11:56:12.394Z,95.60
2022-07-28T11:58:40.963Z,94.80
2022-07-28T12:01:19.435Z,95.40
2022-07-28T12:03:55.085Z,95.40
2022-07-28T12:06:29.214Z,95.50
2022-07-28T12:09:06.165Z,95.60
2022-07-28T12:11:38.715Z,95.50
2022-07-28T12:14:14.188Z,95.30
2022-07-28T12:16:45.087Z,95.50
2022-07-28T12:19:16.722Z,95.30
2022-07-28T12:21:52.793Z,95.40
2022-07-28T12:24:31.824Z,95.30
2022-07-28T12:27:14.945Z,96.00
2022-07-28T12:29:43.813Z,94.90
2022-07-28T12:32:15.840Z,95.60
2022-07-28T12:34:44.451Z,95.20
2022-07-28T12:37:14.235Z,95.30
2022-07-28T12:39:43.088Z,94.90
2022-07-28T12:42:13.110Z,95.00
2022-07-28T12:44:47.456Z,94.50
2022-07-28T12:47:24.511Z,94.50
2022-07-28T12:50:25.765Z,94.10
2022-07-28T12:53:08.619Z,94.40
2022-07-28T12:55:37.091Z,95.10
2022-07-28T12:58:06.324Z,95.60
2022-07-28T13:00:36.143Z,94.60
2022-07-28T13:03:21.537Z,94.80
2022-07-28T13:06:03.668Z,94.30
2022-07-28T13:08:47.030Z,94.90
2022-07-28T13:11:42.053Z,95.60
2022-07-28T13:14:03.445Z,94.70
2022-07-28T13:16:31.559Z,94.70
2022-07-28T13:19:04.329Z,94.60
2022-07-28T13:21:58.682Z,93.60
2022-07-28T13:24:29.589Z,94.00
2022-07-28T13:26:59.110Z,94.30
2022-07-28T13:29:25.957Z,94.50
2022-07-28T13:31:54.611Z,93.90
2022-07-28T13:34:22.061Z,93.90
2022-07-28T13:36:48.993Z,94.30
2022-07-28T13:39:15.877Z,93.40
2022-07-28T13:41:56.898Z,93.80
2022-07-28T13:44:30.676Z,93.20
2022-07-28T13:46:59.222Z,93.30
2022-07-28T13:49:33.837Z,93.70
2022-07-28T13:52:02.055Z,94.10
2022-07-28T13:54:29.219Z,94.10
2022-07-28T13:56:56.093Z,93.90
2022-07-28T13:59:24.004Z,93.90
2022-07-28T14:01:55.337Z,94.00
2022-07-28T14:04:22.663Z,94.50
2022-07-28T14:06:50.033Z,94.00
2022-07-28T14:09:17.913Z,94.30
2022-07-28T14:11:49.979Z,93.70
2022-07-28T14:14:24.502Z,94.40
2022-07-28T14:16:55.670Z,93.50
2022-07-28T14:19:38.933Z,93.40
2022-07-28T14:22:12.496Z,93.60
2022-07-28T14:24:44.215Z,93.20
2022-07-28T14:27:11.317Z,93.90
2022-07-28T14:29:39.985Z,94.70
2022-07-28T14:32:07.339Z,93.90
2022-07-28T14:34:34.982Z,94.10
2022-07-28T14:37:05.642Z,93.90
2022-07-28T14:39:38.240Z,93.60
2022-07-28T14:42:06.633Z,93.80
2022-07-28T14:44:33.750Z,93.80
2022-07-28T14:47:00.720Z,94.30
2022-07-28T14:49:28.008Z,94.30
2022-07-28T14:51:55.993Z,94.40
2022-07-28T14:54:22.965Z,94.30
2022-07-28T14:56:49.800Z,94.30
2022-07-28T14:59:16.673Z,94.30
2022-07-28T15:01:47.310Z,95.10
2022-07-28T15:04:16.853Z,94.10
2022-07-28T15:06:44.113Z,94.50
2022-07-28T15:09:11.319Z,94.30
2022-07-28T15:11:39.622Z,93.70
2022-07-28T15:14:08.162Z,94.20
2022-07-28T15:16:35.043Z,93.70
2022-07-28T15:19:02.447Z,94.20
2022-07-28T15:21:34.356Z,93.90
2022-07-28T15:24:04.949Z,95.00
2022-07-28T15:26:31.985Z,94.60
2022-07-28T15:28:59.120Z,94.50
2022-07-28T15:31:26.541Z,94.50
2022-07-28T15:33:57.648Z,94.20
2022-07-28T15:36:25.522Z,94.40
2022-07-28T15:38:54.076Z,94.70
2022-07-28T15:41:21.388Z,95.00
2022-07-28T15:43:48.317Z,95.30
2022-07-28T15:46:15.890Z,94.90
2022-07-28T15:48:44.686Z,94.80
2022-07-28T15:51:11.620Z,94.40
2022-07-28T15:53:39.361Z,94.70
2022-07-28T15:56:06.687Z,94.80
2022-07-28T15:58:33.647Z,94.40
2022-07-28T16:01:01.914Z,94.80
2022-07-28T16:03:29.916Z,94.50
2022-07-28T16:05:58.449Z,94.70
2022-07-28T16:08:25.412Z,95.30
2022-07-28T16:10:54.352Z,95.50
2022-07-28T16:13:35.846Z,95.50
2022-07-28T16:16:14.008Z,95.50
2022-07-28T16:18:42.871Z,95.40
2022-07-28T16:21:11.101Z,96.10
2022-07-28T16:23:37.950Z,95.30
2022-07-28T16:26:09.086Z,95.10
2022-07-28T16:28:36.712Z,95.50
2022-07-28T16:31:03.828Z,95.80
2022-07-28T16:33:33.834Z,95.80
2022-07-28T16:36:02.126Z,95.60
2022-07-28T16:38:29.162Z,95.70
2022-07-28T16:40:57.063Z,95.90
2022-07-28T16:43:24.432Z,95.60
2022-07-28T16:45:51.455Z,95.80
2022-07-28T16:48:18.312Z,96.00
2022-07-28T16:50:47.527Z,96.00
2022-07-28T16:53:14.511Z,96.10
2022-07-28T16:55:42.239Z,96.50
2022-07-28T16:58:09.223Z,96.30
2022-07-28T17:00:36.085Z,96.90
2022-07-28T17:03:03.027Z,96.90
2022-07-28T17:05:29.912Z,97.30
2022-07-28T17:07:56.761Z,97.60
2022-07-28T17:10:27.017Z,97.10
2022-07-28T17:12:55.470Z,97.30
2022-07-28T17:15:23.495Z,97.00
2022-07-28T17:17:55.842Z,97.30
2022-07-28T17:20:24.881Z,97.20
2022-07-28T17:22:53.809Z,97.40
2022-07-28T17:25:52.708Z,97.20
2022-07-28T17:28:07.619Z,97.30
2022-07-28T17:30:37.248Z,97.60
2022-07-28T17:33:08.622Z,98.60
2022-07-28T17:35:36.824Z,97.80
2022-07-28T17:38:06.810Z,97.70
2022-07-28T17:40:33.916Z,97.70
2022-07-28T17:43:02.796Z,98.00
2022-07-28T17:45:29.584Z,98.60
2022-07-28T17:47:56.383Z,98.10
2022-07-28T17:50:23.353Z,98.20
2022-07-28T17:52:50.112Z,98.50
2022-07-28T17:55:58.192Z,98.50
2022-07-28T17:58:30.985Z,98.60
2022-07-28T18:01:11.195Z,98.60
2022-07-28T18:03:57.058Z,98.90
2022-07-28T18:06:34.713Z,98.90
2022-07-28T18:09:12.003Z,99.10
2022-07-28T18:11:57.304Z,99.30
2022-07-28T18:14:30.243Z,99.40
2022-07-28T18:16:58.607Z,99.50
2022-07-28T18:19:29.982Z,99.60
2022-07-28T18:21:59.072Z,99.50
2022-07-28T18:24:26.296Z,99.70
2022-07-28T18:26:54.390Z,99.90
2022-07-28T18:29:22.043Z,99.80
2022-07-28T18:31:52.630Z,99.90
2022-07-28T18:34:23.579Z,99.90
2022-07-28T18:36:55.554Z,99.90
2022-07-28T18:39:22.707Z,99.90
2022-07-28T18:41:49.629Z,99.90
2022-07-28T18:44:18.126Z,99.90
2022-07-28T18:46:45.828Z,99.90
2022-07-28T18:49:12.833Z,99.90
2022-07-28T18:51:44.229Z,99.90
2022-07-28T18:54:24.772Z,99.90
2022-07-28T18:56:55.486Z,99.90
2022-07-28T18:59:22.960Z,99.90
2022-07-28T19:01:52.888Z,99.90
2022-07-28T19:04:20.134Z,99.90
2022-07-28T19:06:46.972Z,99.90
2022-07-28T19:09:13.804Z,99.90
2022-07-28T19:11:45.720Z,99.90
2022-07-28T19:14:15.671Z,99.90
2022-07-28T19:16:43.757Z,99.90
2022-07-28T19:19:10.858Z,99.90
2022-07-28T19:21:37.749Z,99.90
2022-07-28T19:24:10.316Z,99.90
2022-07-28T19:26:40.616Z,99.90
2022-07-28T19:29:08.220Z,99.90
2022-07-28T19:31:35.068Z,99.90
2022-07-28T19:34:01.860Z,99.90
2022-07-28T19:36:28.980Z,99.90
2022-07-28T19:38:56.017Z,99.90
2022-07-28T19:41:26.193Z,99.90
2022-07-28T19:43:53.078Z,99.90
2022-07-28T19:46:20.027Z,99.90
2022-07-28T19:48:47.154Z,99.90
2022-07-28T19:51:17.004Z,99.90
2022-07-28T19:53:43.880Z,99.90
2022-07-28T19:56:11.672Z,99.90
2022-07-28T19:58:38.533Z,99.90
2022-07-28T20:01:06.033Z,99.90
2022-07-28T20:04:03.255Z,99.90
2022-07-28T20:06:24.636Z,99.90
2022-07-28T20:08:56.835Z,99.90
2022-07-28T20:11:23.710Z,99.90
2022-07-28T20:13:56.128Z,99.90
2022-07-28T20:16:26.244Z,99.90
2022-07-28T20:18:53.308Z,99.90
2022-07-28T20:21:21.291Z,99.90
2022-07-28T20:23:49.060Z,99.90
2022-07-28T20:26:23.828Z,99.90
2022-07-28T20:28:50.956Z,99.90
2022-07-28T20:31:18.909Z,99.90
2022-07-28T20:33:46.868Z,99.90
2022-07-28T20:36:13.927Z,99.90
2022-07-28T20:38:40.719Z,99.90
2022-07-28T20:41:07.817Z,99.90
2022-07-28T20:43:37.010Z,99.90
2022-07-28T20:46:05.329Z,99.90
2022-07-28T20:48:32.611Z,99.90
2022-07-28T20:51:00.141Z,99.90
2022-07-28T20:53:26.981Z,99.90
2022-07-28T20:55:56.243Z,99.90
2022-07-28T20:58:23.098Z,99.90
2022-07-28T21:00:50.831Z,99.90
2022-07-28T21:03:23.236Z,99.90
2022-07-28T21:05:49.984Z,99.90
2022-07-28T21:08:17.141Z,99.90
2022-07-28T21:10:46.012Z,99.90
2022-07-28T21:13:13.067Z,99.90
2022-07-28T21:15:39.830Z,99.90
2022-07-28T21:18:06.661Z,99.90
2022-07-28T21:20:33.591Z,99.90
2022-07-28T21:23:00.368Z,99.90
2022-07-28T21:25:30.134Z,99.90
2022-07-28T21:28:15.606Z,99.90
2022-07-28T21:30:42.420Z,99.90
2022-07-28T21:33:09.249Z,99.90
2022-07-28T21:35:36.181Z,99.90
2022-07-28T21:38:03.026Z,99.90
2022-07-28T21:40:32.900Z,99.90
2022-07-28T21:42:59.670Z,99.90
2022-07-28T21:45:26.471Z,99.90
2022-07-28T21:47:53.247Z,99.90
2022-07-28T21:50:20.135Z,99.90
2022-07-28T21:52:46.930Z,99.90
2022-07-28T21:55:13.767Z,99.90
2022-07-28T21:57:40.700Z,99.90
2022-07-28T22:00:11.985Z,99.90
2022-07-28T22:02:40.792Z,99.90
2022-07-28T22:05:08.409Z,99.90
2022-07-28T22:07:35.357Z,99.90
2022-07-28T22:10:02.162Z,99.90
2022-07-28T22:12:29.506Z,99.90
2022-07-28T22:14:56.357Z,99.90
2022-07-28T22:17:23.187Z,99.90
2022-07-28T22:19:50.000Z,99.90
2022-07-28T22:22:18.328Z,99.90
2022-07-28T22:24:45.840Z,99.90
2022-07-28T22:27:12.691Z,99.90
2022-07-28T22:29:39.441Z,99.90
2022-07-28T22:32:16.828Z,99.90
2022-07-28T22:34:53.456Z,99.90
2022-07-28T22:37:20.249Z,99.90
2022-07-28T22:39:47.256Z,99.90
2022-07-28T22:42:14.260Z,99.90
2022-07-28T22:44:41.075Z,99.90
2022-07-28T22:47:07.959Z,99.90
2022-07-28T22:49:34.809Z,99.90
2022-07-28T22:52:01.871Z,99.90
2022-07-28T22:54:28.698Z,99.90
2022-07-28T22:56:55.723Z,99.90
2022-07-28T22:59:22.560Z,99.90
2022-07-28T23:01:49.420Z,99.90
2022-07-28T23:04:16.549Z,99.90
2022-07-28T23:06:43.607Z,99.90
2022-07-28T23:09:12.119Z,99.90
2022-07-28T23:11:39.445Z,99.90
2022-07-28T23:14:06.307Z,99.90
2022-07-28T23:16:33.286Z,99.90
2022-07-28T23:19:00.420Z,99.90
2022-07-28T23:21:27.273Z,99.90
2022-07-28T23:23:54.553Z,99.90
2022-07-28T23:26:21.397Z,99.90
2022-07-28T23:28:48.227Z,99.90
2022-07-28T23:31:15.137Z,99.90
2022-07-28T23:33:56.494Z,99.90
2022-07-28T23:36:26.878Z,99.90
2022-07-28T23:38:57.158Z,99.90
2022-07-28T23:41:24.920Z,99.90
2022-07-28T23:43:52.316Z,99.90
2022-07-28T23:46:19.295Z,99.90
2022-07-28T23:48:46.359Z,99.90
2022-07-28T23:51:14.115Z,99.90
2022-07-28T23:53:41.296Z,99.90
2022-07-28T23:56:08.570Z,99.90
2022-07-28T23:58:35.853Z,99.90
